Time,TemperatureF,DewpointF,PressureIn,WindDirection,WindDirectionDegrees,WindSpeedMPH,WindSpeedGustMPH,Humidity,HourlyPrecipIn,Conditions,Clouds,dailyrainin,SoftwareType,DateUTC
2013-09-06 00:01:00,51.7,45.7,30.15,NNW,327,0.0,0.0,80,0.00,,,0.00,WeatherCatV1.15B25,2013-09-06 04:01:00,
2013-09-06 00:06:00,51.5,45.5,30.16,NNW,328,0.0,0.0,80,0.00,,,0.00,WeatherCatV1.15B25,2013-09-06 04:06:00,
2013-09-06 00:11:00,51.4,45.1,30.16,NNW,327,0.0,0.0,79,0.00,,,0.00,WeatherCatV1.15B25,2013-09-06 04:11:00,
2013-09-06 00:16:00,51.3,45.3,30.16,NNW,328,0.0,0.0,80,0.00,,,0.00,WeatherCatV1.15B25,2013-09-06 04:16:00,
2013-09-06 00:21:00,51.2,45.2,30.16,NNW,328,0.0,1.0,80,0.00,,,0.00,WeatherCatV1.15B25,2013-09-06 04:21:00,
2013-09-06 00:26:00,51.1,44.5,30.16,NNW,328,0.0,0.0,78,0.00,,,0.00,WeatherCatV1.15B25,2013-09-06 04:26:00,
2013-09-06 00:31:00,51.0,44.4,30.16,NNW,327,0.0,0.0,78,0.00,,,0.00,WeatherCatV1.15B25,2013-09-06 04:31:00,
2013-09-06 00:36:00,51.0,44.4,30.16,NNW,327,0.0,0.0,78,0.00,,,0.00,WeatherCatV1.15B25,2013-09-06 04:36:00,
2013-09-06 00:41:00,51.1,44.8,30.16,NNW,328,0.0,0.0,79,0.00,,,0.00,WeatherCatV1.15B25,2013-09-06 04:41:00,
2013-09-06 00:46:00,51.0,44.4,30.16,NNW,328,0.0,0.0,78,0.00,,,0.00,WeatherCatV1.15B25,2013-09-06 04:46:00,
2013-09-06 00:51:00,51.0,44.7,30.16,NNW,327,0.0,1.0,79,0.00,,,0.00,WeatherCatV1.15B25,2013-09-06 04:51:00,
2013-09-06 00:56:00,50.9,45.3,30.16,NNW,328,0.0,0.0,81,0.00,,,0.00,WeatherCatV1.15B25,2013-09-06 04:56:00,
2013-09-06 01:01:00,50.8,45.2,30.16,NNW,328,0.0,0.0,81,0.00,,,0.00,WeatherCatV1.15B25,2013-09-06 05:01:00,
2013-09-06 01:06:00,50.6,44.7,30.17,NNW,327,0.0,0.0,80,0.00,,,0.00,WeatherCatV1.15B25,2013-09-06 05:06:00,
2013-09-06 01:11:00,50.6,45.3,30.17,NNW,328,0.0,0.0,82,0.00,,,0.00,WeatherCatV1.15B25,2013-09-06 05:11:00,
2013-09-06 01:16:00,50.5,45.2,30.17,NNW,329,0.0,0.0,82,0.00,,,0.00,WeatherCatV1.15B25,2013-09-06 05:16:00,
2013-09-06 01:21:00,50.3,45.7,30.17,NNW,328,0.0,0.0,84,0.00,,,0.00,WeatherCatV1.15B25,2013-09-06 05:21:00,
2013-09-06 01:26:00,50.2,45.2,30.17,NNW,327,0.0,0.0,83,0.00,,,0.00,WeatherCatV1.15B25,2013-09-06 05:26:00,
2013-09-06 01:31:00,50.1,44.8,30.17,NNW,328,0.0,0.0,82,0.00,,,0.00,WeatherCatV1.15B25,2013-09-06 05:31:00,
2013-09-06 01:36:00,49.9,44.3,30.17,NNW,328,0.0,0.0,81,0.00,,,0.00,WeatherCatV1.15B25,2013-09-06 05:36:00,
2013-09-06 01:41:00,49.9,44.3,30.17,NW,313,0.0,0.0,81,0.00,,,0.00,WeatherCatV1.15B25,2013-09-06 05:41:00,
2013-09-06 01:46:00,50.0,44.4,30.17,NW,313,0.0,1.0,81,0.00,,,0.00,WeatherCatV1.15B25,2013-09-06 05:46:00,
2013-09-06 01:51:00,50.0,45.0,30.17,NW,313,0.0,0.0,83,0.00,,,0.00,WeatherCatV1.15B25,2013-09-06 05:51:00,
2013-09-06 01:56:00,50.1,43.8,30.17,North,355,0.0,1.0,79,0.00,,,0.00,WeatherCatV1.15B25,2013-09-06 05:56:00,
2013-09-06 02:01:00,50.3,45.3,30.17,North,355,0.0,0.0,83,0.00,,,0.00,WeatherCatV1.15B25,2013-09-06 06:01:00,
2013-09-06 02:06:00,50.2,44.6,30.17,North,355,0.0,0.0,81,0.00,,,0.00,WeatherCatV1.15B25,2013-09-06 06:06:00,
2013-09-06 02:11:00,50.2,45.2,30.17,North,355,0.0,0.0,83,0.00,,,0.00,WeatherCatV1.15B25,2013-09-06 06:11:00,
2013-09-06 02:16:00,50.0,44.7,30.17,SSE,154,0.0,0.0,82,0.00,,,0.00,WeatherCatV1.15B25,2013-09-06 06:16:00,
2013-09-06 02:21:00,49.8,44.8,30.17,ENE,61,0.0,0.0,83,0.00,,,0.00,WeatherCatV1.15B25,2013-09-06 06:21:00,
2013-09-06 02:26:00,49.6,44.7,30.17,NNW,336,0.0,0.0,83,0.00,,,0.00,WeatherCatV1.15B25,2013-09-06 06:26:00,
2013-09-06 02:31:00,49.5,44.6,30.18,NNW,336,0.0,0.0,83,0.00,,,0.00,WeatherCatV1.15B25,2013-09-06 06:31:00,
2013-09-06 02:36:00,49.4,44.5,30.18,NNW,336,0.0,0.0,83,0.00,,,0.00,WeatherCatV1.15B25,2013-09-06 06:36:00,
2013-09-06 02:41:00,49.2,44.6,30.18,NNW,336,0.0,0.0,84,0.00,,,0.00,WeatherCatV1.15B25,2013-09-06 06:41:00,
2013-09-06 02:46:00,49.0,44.4,30.18,NNW,336,0.0,0.0,84,0.00,,,0.00,WeatherCatV1.15B25,2013-09-06 06:46:00,
2013-09-06 02:51:00,48.8,44.2,30.18,NNW,336,0.0,0.0,84,0.00,,,0.00,WeatherCatV1.15B25,2013-09-06 06:51:00,
2013-09-06 02:56:00,48.6,44.0,30.18,NNW,336,0.0,0.0,84,0.00,,,0.00,WeatherCatV1.15B25,2013-09-06 06:56:00,
2013-09-06 03:01:00,48.4,44.1,30.18,NE,41,0.0,0.0,85,0.00,,,0.00,WeatherCatV1.15B25,2013-09-06 07:01:00,
2013-09-06 03:06:00,48.3,44.0,30.18,NE,41,0.0,0.0,85,0.00,,,0.00,WeatherCatV1.15B25,2013-09-06 07:06:00,
2013-09-06 03:11:00,48.2,43.9,30.18,NE,41,0.0,1.0,85,0.00,,,0.00,WeatherCatV1.15B25,2013-09-06 07:11:00,
2013-09-06 03:16:00,48.2,43.9,30.19,WNW,288,0.0,0.0,85,0.00,,,0.00,WeatherCatV1.15B25,2013-09-06 07:16:00,
2013-09-06 03:21:00,48.3,44.0,30.19,WNW,288,0.0,0.0,85,0.00,,,0.00,WeatherCatV1.15B25,2013-09-06 07:21:00,
2013-09-06 03:26:00,48.3,44.0,30.19,WNW,288,0.0,0.0,85,0.00,,,0.00,WeatherCatV1.15B25,2013-09-06 07:26:00,
2013-09-06 03:31:00,48.4,43.8,30.20,WNW,288,0.0,0.0,84,0.00,,,0.00,WeatherCatV1.15B25,2013-09-06 07:31:00,
2013-09-06 03:36:00,48.4,44.1,30.19,WNW,288,0.0,0.0,85,0.00,,,0.00,WeatherCatV1.15B25,2013-09-06 07:36:00,
2013-09-06 03:41:00,48.3,44.0,30.20,WNW,288,0.0,0.0,85,0.00,,,0.00,WeatherCatV1.15B25,2013-09-06 07:41:00,
2013-09-06 03:46:00,48.2,44.2,30.19,WNW,288,0.0,0.0,86,0.00,,,0.00,WeatherCatV1.15B25,2013-09-06 07:46:00,
2013-09-06 03:51:00,48.0,44.3,30.19,WNW,288,0.0,1.0,87,0.00,,,0.00,WeatherCatV1.15B25,2013-09-06 07:51:00,
2013-09-06 03:56:00,47.8,44.1,30.19,WNW,288,0.0,1.0,87,0.00,,,0.00,WeatherCatV1.15B25,2013-09-06 07:56:00,
2013-09-06 04:01:00,47.7,43.7,30.20,WNW,288,0.0,0.0,86,0.00,,,0.00,WeatherCatV1.15B25,2013-09-06 08:01:00,
2013-09-06 04:06:00,47.8,44.1,30.20,WNW,288,0.0,0.0,87,0.00,,,0.00,WeatherCatV1.15B25,2013-09-06 08:06:00,
2013-09-06 04:11:00,47.8,44.1,30.19,WNW,288,0.0,0.0,87,0.00,,,0.00,WeatherCatV1.15B25,2013-09-06 08:11:00,
2013-09-06 04:16:00,47.8,43.8,30.19,WNW,288,0.0,0.0,86,0.00,,,0.00,WeatherCatV1.15B25,2013-09-06 08:16:00,
2013-09-06 04:21:00,47.8,44.1,30.19,WNW,288,0.0,0.0,87,0.00,,,0.00,WeatherCatV1.15B25,2013-09-06 08:21:00,
2013-09-06 04:26:00,47.7,43.7,30.19,NE,48,0.0,0.0,86,0.00,,,0.00,WeatherCatV1.15B25,2013-09-06 08:26:00,
2013-09-06 04:31:00,47.7,43.7,30.19,NE,48,0.0,0.0,86,0.00,,,0.00,WeatherCatV1.15B25,2013-09-06 08:31:00,
2013-09-06 04:36:00,47.5,43.5,30.19,NE,48,0.0,0.0,86,0.00,,,0.00,WeatherCatV1.15B25,2013-09-06 08:36:00,
2013-09-06 04:41:00,47.5,43.8,30.19,NE,49,0.0,0.0,87,0.00,,,0.00,WeatherCatV1.15B25,2013-09-06 08:41:00,
2013-09-06 04:46:00,47.5,43.8,30.19,NE,50,0.0,0.0,87,0.00,,,0.00,WeatherCatV1.15B25,2013-09-06 08:46:00,
2013-09-06 04:51:00,47.4,44.0,30.19,NE,50,0.0,0.0,88,0.00,,,0.00,WeatherCatV1.15B25,2013-09-06 08:51:00,
2013-09-06 04:56:00,47.4,44.0,30.19,NE,50,0.0,0.0,88,0.00,,,0.00,WeatherCatV1.15B25,2013-09-06 08:56:00,
2013-09-06 05:01:00,47.2,43.8,30.19,NE,50,0.0,0.0,88,0.00,,,0.00,WeatherCatV1.15B25,2013-09-06 09:01:00,
2013-09-06 05:06:00,47.1,44.0,30.20,NE,49,0.0,0.0,89,0.00,,,0.00,WeatherCatV1.15B25,2013-09-06 09:06:00,
2013-09-06 05:11:00,47.0,43.6,30.20,NE,50,0.0,0.0,88,0.00,,,0.00,WeatherCatV1.15B25,2013-09-06 09:11:00,
2013-09-06 05:16:00,47.0,43.6,30.20,NE,49,0.0,0.0,88,0.00,,,0.00,WeatherCatV1.15B25,2013-09-06 09:16:00,
2013-09-06 05:21:00,47.0,43.6,30.20,NE,49,0.0,0.0,88,0.00,,,0.00,WeatherCatV1.15B25,2013-09-06 09:21:00,
2013-09-06 05:26:00,47.0,43.3,30.20,NE,50,0.0,0.0,87,0.00,,,0.00,WeatherCatV1.15B25,2013-09-06 09:26:00,
2013-09-06 05:31:00,47.1,43.4,30.20,NE,50,0.0,0.0,87,0.00,,,0.00,WeatherCatV1.15B25,2013-09-06 09:31:00,
2013-09-06 05:36:00,47.1,43.4,30.20,NE,50,0.0,0.0,87,0.00,,,0.00,WeatherCatV1.15B25,2013-09-06 09:36:00,
2013-09-06 05:41:00,47.0,43.3,30.20,NE,50,0.0,0.0,87,0.00,,,0.00,WeatherCatV1.15B25,2013-09-06 09:41:00,
2013-09-06 05:46:00,46.9,43.2,30.20,NE,44,0.0,1.0,87,0.00,,,0.00,WeatherCatV1.15B25,2013-09-06 09:46:00,
2013-09-06 05:51:00,46.8,43.1,30.20,NE,44,0.0,0.0,87,0.00,,,0.00,WeatherCatV1.15B25,2013-09-06 09:51:00,
2013-09-06 05:56:00,46.8,43.4,30.20,NE,44,0.0,0.0,88,0.00,,,0.00,WeatherCatV1.15B25,2013-09-06 09:56:00,
2013-09-06 06:01:00,46.8,43.1,30.21,NE,44,0.0,0.0,87,0.00,,,0.00,WeatherCatV1.15B25,2013-09-06 10:01:00,
2013-09-06 06:06:00,46.8,43.1,30.21,NE,44,0.0,0.0,87,0.00,,,0.00,WeatherCatV1.15B25,2013-09-06 10:06:00,
2013-09-06 06:11:00,46.8,43.1,30.21,NE,44,0.0,0.0,87,0.00,,,0.00,WeatherCatV1.15B25,2013-09-06 10:11:00,
2013-09-06 06:16:00,46.8,43.1,30.21,NE,44,0.0,0.0,87,0.00,,,0.00,WeatherCatV1.15B25,2013-09-06 10:16:00,
2013-09-06 06:21:00,46.8,43.1,30.22,NE,44,0.0,1.0,87,0.00,,,0.00,WeatherCatV1.15B25,2013-09-06 10:21:00,
2013-09-06 06:26:00,46.7,43.0,30.22,NE,44,0.0,0.0,87,0.00,,,0.00,WeatherCatV1.15B25,2013-09-06 10:26:00,
2013-09-06 06:31:00,46.6,42.6,30.22,NE,42,0.0,1.0,86,0.00,,,0.00,WeatherCatV1.15B25,2013-09-06 10:31:00,
2013-09-06 06:36:00,46.7,43.0,30.22,NE,42,0.0,0.0,87,0.00,,,0.00,WeatherCatV1.15B25,2013-09-06 10:36:00,
2013-09-06 06:41:00,46.8,43.1,30.22,NE,43,0.0,0.0,87,0.00,,,0.00,WeatherCatV1.15B25,2013-09-06 10:41:00,
2013-09-06 06:46:00,46.8,43.1,30.22,NE,43,0.0,0.0,87,0.00,,,0.00,WeatherCatV1.15B25,2013-09-06 10:46:00,
2013-09-06 06:51:00,46.8,43.1,30.22,NE,42,0.0,0.0,87,0.00,,,0.00,WeatherCatV1.15B25,2013-09-06 10:51:00,
2013-09-06 06:56:00,46.9,43.2,30.23,NE,44,0.0,0.0,87,0.00,,,0.00,WeatherCatV1.15B25,2013-09-06 10:56:00,
2013-09-06 07:01:00,47.0,43.3,30.23,NE,46,0.0,0.0,87,0.00,,,0.00,WeatherCatV1.15B25,2013-09-06 11:01:00,
2013-09-06 07:06:00,47.1,43.4,30.23,NE,46,0.0,0.0,87,0.00,,,0.00,WeatherCatV1.15B25,2013-09-06 11:06:00,
2013-09-06 07:11:00,47.4,43.7,30.23,NE,46,0.0,0.0,87,0.00,,,0.00,WeatherCatV1.15B25,2013-09-06 11:11:00,
2013-09-06 07:16:00,47.5,43.8,30.23,NE,46,0.0,0.0,87,0.00,,,0.00,WeatherCatV1.15B25,2013-09-06 11:16:00,
2013-09-06 07:21:00,47.7,44.0,30.23,NE,46,0.0,0.0,87,0.00,,,0.00,WeatherCatV1.15B25,2013-09-06 11:21:00,
2013-09-06 07:26:00,47.9,44.2,30.23,NE,46,0.0,0.0,87,0.00,,,0.00,WeatherCatV1.15B25,2013-09-06 11:26:00,
2013-09-06 07:31:00,48.1,44.1,30.24,NE,46,0.0,0.0,86,0.00,,,0.00,WeatherCatV1.15B25,2013-09-06 11:31:00,
2013-09-06 07:36:00,48.3,44.6,30.24,NE,46,0.0,0.0,87,0.00,,,0.00,WeatherCatV1.15B25,2013-09-06 11:36:00,
2013-09-06 07:41:00,48.4,44.4,30.24,NE,41,0.0,1.0,86,0.00,,,0.00,WeatherCatV1.15B25,2013-09-06 11:41:00,
2013-09-06 07:46:00,48.6,44.6,30.24,NE,40,0.0,1.0,86,0.00,,,0.00,WeatherCatV1.15B25,2013-09-06 11:46:00,
2013-09-06 07:51:00,48.9,44.9,30.24,NE,41,0.0,0.0,86,0.00,,,0.00,WeatherCatV1.15B25,2013-09-06 11:51:00,
2013-09-06 07:56:00,49.1,44.8,30.24,NE,40,0.0,1.0,85,0.00,,,0.00,WeatherCatV1.15B25,2013-09-06 11:56:00,
2013-09-06 08:01:00,49.2,44.9,30.24,NE,40,0.0,0.0,85,0.00,,,0.00,WeatherCatV1.15B25,2013-09-06 12:01:00,
2013-09-06 08:06:00,49.2,44.9,30.24,NE,40,0.0,0.0,85,0.00,,,0.00,WeatherCatV1.15B25,2013-09-06 12:06:00,
2013-09-06 08:11:00,49.4,45.4,30.24,NE,40,0.0,0.0,86,0.00,,,0.00,WeatherCatV1.15B25,2013-09-06 12:11:00,
2013-09-06 08:16:00,49.4,45.1,30.24,NE,40,0.0,0.0,85,0.00,,,0.00,WeatherCatV1.15B25,2013-09-06 12:16:00,
2013-09-06 08:21:00,49.5,45.2,30.25,NE,41,0.0,0.0,85,0.00,,,0.00,WeatherCatV1.15B25,2013-09-06 12:21:00,
2013-09-06 08:26:00,49.5,45.5,30.25,NE,41,0.0,0.0,86,0.00,,,0.00,WeatherCatV1.15B25,2013-09-06 12:26:00,
2013-09-06 08:31:00,49.5,45.2,30.25,NE,41,0.0,0.0,85,0.00,,,0.00,WeatherCatV1.15B25,2013-09-06 12:31:00,
2013-09-06 08:36:00,49.6,44.7,30.25,NE,41,0.0,0.0,83,0.00,,,0.00,WeatherCatV1.15B25,2013-09-06 12:36:00,
2013-09-06 08:41:00,49.6,45.0,30.25,NE,41,0.0,0.0,84,0.00,,,0.00,WeatherCatV1.15B25,2013-09-06 12:41:00,
2013-09-06 08:46:00,49.6,44.7,30.25,NE,42,0.0,0.0,83,0.00,,,0.00,WeatherCatV1.15B25,2013-09-06 12:46:00,
2013-09-06 08:51:00,49.7,45.4,30.25,NE,42,0.0,1.0,85,0.00,,,0.00,WeatherCatV1.15B25,2013-09-06 12:51:00,
2013-09-06 08:56:00,50.0,46.0,30.25,NE,42,0.0,1.0,86,0.00,,,0.00,WeatherCatV1.15B25,2013-09-06 12:56:00,
2013-09-06 09:01:00,50.3,45.7,30.25,NE,42,0.0,0.0,84,0.00,,,0.00,WeatherCatV1.15B25,2013-09-06 13:01:00,
2013-09-06 09:06:00,50.6,45.9,30.25,NE,42,0.0,1.0,84,0.00,,,0.00,WeatherCatV1.15B25,2013-09-06 13:06:00,
2013-09-06 09:11:00,51.1,45.8,30.25,NE,42,0.0,0.0,82,0.00,,,0.00,WeatherCatV1.15B25,2013-09-06 13:11:00,
2013-09-06 09:16:00,51.5,44.9,30.25,NE,42,0.0,0.0,78,0.00,,,0.00,WeatherCatV1.15B25,2013-09-06 13:16:00,
2013-09-06 09:21:00,51.7,45.4,30.25,NE,43,0.0,2.0,79,0.00,,,0.00,WeatherCatV1.15B25,2013-09-06 13:21:00,
2013-09-06 09:26:00,52.2,46.5,30.25,NE,42,0.0,0.0,81,0.00,,,0.00,WeatherCatV1.15B25,2013-09-06 13:26:00,
2013-09-06 09:32:00,52.5,45.5,30.25,NNE,18,0.0,0.0,77,0.00,,,0.00,WeatherCatV1.15B25,2013-09-06 13:32:00,
2013-09-06 09:37:00,52.8,46.8,30.25,NNE,19,0.0,1.0,80,0.00,,,0.00,WeatherCatV1.15B25,2013-09-06 13:37:00,
2013-09-06 09:42:00,52.9,46.2,30.25,NNE,20,0.0,0.0,78,0.00,,,0.00,WeatherCatV1.15B25,2013-09-06 13:42:00,
2013-09-06 09:47:00,53.0,46.3,30.25,NNE,26,0.0,1.0,78,0.00,,,0.00,WeatherCatV1.15B25,2013-09-06 13:47:00,
2013-09-06 09:52:00,53.1,46.8,30.26,NNE,26,0.0,1.0,79,0.00,,,0.00,WeatherCatV1.15B25,2013-09-06 13:52:00,
2013-09-06 09:57:00,53.3,47.6,30.25,NNE,29,0.0,1.0,81,0.00,,,0.00,WeatherCatV1.15B25,2013-09-06 13:57:00,
2013-09-06 10:02:00,53.4,46.0,30.25,NE,46,1.0,1.0,76,0.00,,,0.00,WeatherCatV1.15B25,2013-09-06 14:02:00,
2013-09-06 10:07:00,53.6,47.2,30.26,WNW,298,0.0,0.0,79,0.00,,,0.00,WeatherCatV1.15B25,2013-09-06 14:07:00,
2013-09-06 10:12:00,53.9,47.2,30.25,NNE,31,0.0,0.0,78,0.00,,,0.00,WeatherCatV1.15B25,2013-09-06 14:12:00,
2013-09-06 10:17:00,54.1,47.0,30.26,NNE,31,0.0,0.0,77,0.00,,,0.00,WeatherCatV1.15B25,2013-09-06 14:17:00,
2013-09-06 10:22:00,54.3,47.6,30.25,North,355,0.0,0.0,78,0.00,,,0.00,WeatherCatV1.15B25,2013-09-06 14:22:00,
2013-09-06 10:27:00,54.5,47.4,30.25,North,355,0.0,0.0,77,0.00,,,0.00,WeatherCatV1.15B25,2013-09-06 14:27:00,
2013-09-06 10:32:00,54.6,47.5,30.25,NW,314,0.0,1.0,77,0.00,,,0.00,WeatherCatV1.15B25,2013-09-06 14:32:00,
2013-09-06 10:37:00,54.7,47.3,30.25,NW,320,0.0,0.0,76,0.00,,,0.00,WeatherCatV1.15B25,2013-09-06 14:37:00,
2013-09-06 10:42:00,55.0,47.2,30.25,NW,319,0.0,1.0,75,0.00,,,0.00,WeatherCatV1.15B25,2013-09-06 14:42:00,
2013-09-06 10:47:00,55.2,47.8,30.26,NW,313,0.0,1.0,76,0.00,,,0.00,WeatherCatV1.15B25,2013-09-06 14:47:00,
2013-09-06 10:52:00,55.2,47.4,30.26,NNW,327,2.0,2.0,75,0.00,,,0.00,WeatherCatV1.15B25,2013-09-06 14:52:00,
2013-09-06 10:57:00,55.3,46.8,30.25,NW,322,0.0,3.0,73,0.00,,,0.00,WeatherCatV1.15B25,2013-09-06 14:57:00,
2013-09-06 11:02:00,55.5,47.0,30.25,NW,323,0.0,1.0,73,0.00,,,0.00,WeatherCatV1.15B25,2013-09-06 15:02:00,
2013-09-06 11:07:00,55.7,46.8,30.25,NW,323,0.0,0.0,72,0.00,,,0.00,WeatherCatV1.15B25,2013-09-06 15:07:00,
2013-09-06 11:12:00,56.0,47.5,30.25,NW,323,0.0,1.0,73,0.00,,,0.00,WeatherCatV1.15B25,2013-09-06 15:12:00,
2013-09-06 11:17:00,56.0,46.4,30.25,NW,322,0.0,0.0,70,0.00,,,0.00,WeatherCatV1.15B25,2013-09-06 15:17:00,
2013-09-06 11:22:00,56.0,46.7,30.26,NW,323,0.0,1.0,71,0.00,,,0.00,WeatherCatV1.15B25,2013-09-06 15:22:00,
2013-09-06 11:27:00,56.2,47.7,30.26,NW,323,0.0,1.0,73,0.00,,,0.00,WeatherCatV1.15B25,2013-09-06 15:27:00,
2013-09-06 11:32:00,56.4,47.5,30.25,NW,323,0.0,0.0,72,0.00,,,0.00,WeatherCatV1.15B25,2013-09-06 15:32:00,
2013-09-06 11:37:00,56.4,47.9,30.25,NW,323,0.0,0.0,73,0.00,,,0.00,WeatherCatV1.15B25,2013-09-06 15:37:00,
2013-09-06 11:42:00,56.4,47.5,30.25,NW,323,0.0,1.0,72,0.00,,,0.00,WeatherCatV1.15B25,2013-09-06 15:42:00,
2013-09-06 11:47:00,56.4,48.2,30.26,NW,323,0.0,1.0,74,0.00,,,0.00,WeatherCatV1.15B25,2013-09-06 15:47:00,
2013-09-06 11:52:00,56.6,48.0,30.26,NW,322,1.0,1.0,73,0.00,,,0.00,WeatherCatV1.15B25,2013-09-06 15:52:00,
2013-09-06 11:57:00,56.7,48.1,30.26,NW,323,0.0,0.0,73,0.00,,,0.00,WeatherCatV1.15B25,2013-09-06 15:57:00,
2013-09-06 12:02:00,56.9,48.0,30.26,NW,323,0.0,1.0,72,0.00,,,0.00,WeatherCatV1.15B25,2013-09-06 16:02:00,
2013-09-06 12:07:00,57.1,47.0,30.26,NW,323,0.0,0.0,69,0.00,,,0.00,WeatherCatV1.15B25,2013-09-06 16:07:00,
2013-09-06 12:12:00,57.3,47.2,30.26,NW,322,0.0,0.0,69,0.00,,,0.00,WeatherCatV1.15B25,2013-09-06 16:12:00,
2013-09-06 12:17:00,57.4,47.3,30.25,NW,323,0.0,0.0,69,0.00,,,0.00,WeatherCatV1.15B25,2013-09-06 16:17:00,
2013-09-06 12:22:00,57.6,47.5,30.25,NW,323,0.0,1.0,69,0.00,,,0.00,WeatherCatV1.15B25,2013-09-06 16:22:00,
2013-09-06 12:27:00,57.8,46.1,30.25,NW,323,0.0,0.0,65,0.00,,,0.00,WeatherCatV1.15B25,2013-09-06 16:27:00,
2013-09-06 12:32:00,58.0,47.9,30.24,NW,322,0.0,0.0,69,0.00,,,0.00,WeatherCatV1.15B25,2013-09-06 16:32:00,
2013-09-06 12:37:00,58.3,47.8,30.24,NW,326,0.0,0.0,68,0.00,,,0.00,WeatherCatV1.15B25,2013-09-06 16:37:00,
2013-09-06 12:42:00,58.6,47.3,30.25,NW,326,0.0,1.0,66,0.00,,,0.00,WeatherCatV1.15B25,2013-09-06 16:42:00,
2013-09-06 12:47:00,58.7,48.2,30.25,NW,326,0.0,0.0,68,0.00,,,0.00,WeatherCatV1.15B25,2013-09-06 16:47:00,
2013-09-06 12:52:00,59.0,46.8,30.25,NW,326,0.0,1.0,64,0.00,,,0.00,WeatherCatV1.15B25,2013-09-06 16:52:00,
2013-09-06 12:57:00,59.0,47.2,30.25,NW,326,0.0,0.0,65,0.00,,,0.00,WeatherCatV1.15B25,2013-09-06 16:57:00,
2013-09-06 13:02:00,59.1,46.1,30.25,NW,325,0.0,1.0,62,0.00,,,0.00,WeatherCatV1.15B25,2013-09-06 17:02:00,
2013-09-06 13:07:00,59.5,47.7,30.25,NW,325,0.0,1.0,65,0.00,,,0.00,WeatherCatV1.15B25,2013-09-06 17:07:00,
2013-09-06 13:12:00,59.8,46.8,30.24,NW,325,0.0,0.0,62,0.00,,,0.00,WeatherCatV1.15B25,2013-09-06 17:12:00,
2013-09-06 13:17:00,59.9,46.0,30.24,NW,325,0.0,1.0,60,0.00,,,0.00,WeatherCatV1.15B25,2013-09-06 17:17:00,
2013-09-06 13:22:00,59.9,46.0,30.24,NW,325,0.0,1.0,60,0.00,,,0.00,WeatherCatV1.15B25,2013-09-06 17:22:00,
2013-09-06 13:27:00,60.0,46.1,30.24,NW,325,0.0,0.0,60,0.00,,,0.00,WeatherCatV1.15B25,2013-09-06 17:27:00,
2013-09-06 13:32:00,60.0,46.1,30.23,NW,325,0.0,0.0,60,0.00,,,0.00,WeatherCatV1.15B25,2013-09-06 17:32:00,
2013-09-06 13:37:00,60.1,48.3,30.24,NNW,328,0.0,0.0,65,0.00,,,0.00,WeatherCatV1.15B25,2013-09-06 17:37:00,
2013-09-06 13:42:00,60.3,47.2,30.23,NNW,328,1.0,1.0,62,0.00,,,0.00,WeatherCatV1.15B25,2013-09-06 17:42:00,
2013-09-06 13:47:00,60.5,47.8,30.23,NNW,328,0.0,0.0,63,0.00,,,0.00,WeatherCatV1.15B25,2013-09-06 17:47:00,
2013-09-06 13:52:00,60.6,47.9,30.23,NNW,327,0.0,0.0,63,0.00,,,0.00,WeatherCatV1.15B25,2013-09-06 17:52:00,
2013-09-06 13:57:00,60.8,48.1,30.23,NNW,328,0.0,0.0,63,0.00,,,0.00,WeatherCatV1.15B25,2013-09-06 17:57:00,
2013-09-06 14:02:00,60.8,45.9,30.23,WNW,283,0.0,0.0,58,0.00,,,0.00,WeatherCatV1.15B25,2013-09-06 18:02:00,
2013-09-06 14:07:00,60.9,47.4,30.23,WNW,283,0.0,0.0,61,0.00,,,0.00,WeatherCatV1.15B25,2013-09-06 18:07:00,
2013-09-06 14:12:00,60.8,46.4,30.23,WNW,283,0.0,0.0,59,0.00,,,0.00,WeatherCatV1.15B25,2013-09-06 18:12:00,
2013-09-06 14:17:00,60.9,47.4,30.22,WNW,283,0.0,0.0,61,0.00,,,0.00,WeatherCatV1.15B25,2013-09-06 18:17:00,
2013-09-06 14:22:00,60.9,47.4,30.22,SW,232,0.0,0.0,61,0.00,,,0.00,WeatherCatV1.15B25,2013-09-06 18:22:00,
2013-09-06 14:27:00,60.7,47.6,30.22,West,265,0.0,1.0,62,0.00,,,0.00,WeatherCatV1.15B25,2013-09-06 18:27:00,
2013-09-06 14:32:00,60.7,48.4,30.22,West,265,0.0,0.0,64,0.00,,,0.00,WeatherCatV1.15B25,2013-09-06 18:32:00,
2013-09-06 14:37:00,60.7,47.2,30.21,West,265,0.0,0.0,61,0.00,,,0.00,WeatherCatV1.15B25,2013-09-06 18:37:00,
2013-09-06 14:42:00,60.8,48.1,30.21,West,265,0.0,0.0,63,0.00,,,0.00,WeatherCatV1.15B25,2013-09-06 18:42:00,
2013-09-06 14:47:00,60.9,47.4,30.21,WNW,299,0.0,1.0,61,0.00,,,0.00,WeatherCatV1.15B25,2013-09-06 18:47:00,
2013-09-06 14:52:00,61.1,47.1,30.21,WNW,299,0.0,0.0,60,0.00,,,0.00,WeatherCatV1.15B25,2013-09-06 18:52:00,
2013-09-06 14:57:00,61.0,45.7,30.20,WNW,299,0.0,0.0,57,0.00,,,0.00,WeatherCatV1.15B25,2013-09-06 18:57:00,
2013-09-06 15:02:00,60.9,47.8,30.20,WNW,299,0.0,0.0,62,0.00,,,0.00,WeatherCatV1.15B25,2013-09-06 19:02:00,
2013-09-06 15:07:00,60.9,49.1,30.20,WNW,299,0.0,0.0,65,0.00,,,0.00,WeatherCatV1.15B25,2013-09-06 19:07:00,
2013-09-06 15:12:00,60.8,48.1,30.20,WNW,299,0.0,0.0,63,0.00,,,0.00,WeatherCatV1.15B25,2013-09-06 19:12:00,
2013-09-06 15:17:00,61.0,47.0,30.20,WNW,299,0.0,0.0,60,0.00,,,0.00,WeatherCatV1.15B25,2013-09-06 19:17:00,
2013-09-06 15:22:00,61.0,46.1,30.20,WNW,299,0.0,1.0,58,0.00,,,0.00,WeatherCatV1.15B25,2013-09-06 19:22:00,
2013-09-06 15:27:00,61.0,48.3,30.20,WNW,299,0.0,0.0,63,0.00,,,0.00,WeatherCatV1.15B25,2013-09-06 19:27:00,
2013-09-06 15:32:00,61.2,47.6,30.19,WNW,299,0.0,1.0,61,0.00,,,0.00,WeatherCatV1.15B25,2013-09-06 19:32:00,
2013-09-06 15:37:00,61.4,46.9,30.20,WNW,299,0.0,0.0,59,0.00,,,0.00,WeatherCatV1.15B25,2013-09-06 19:37:00,
2013-09-06 15:42:00,61.4,46.9,30.19,WNW,299,0.0,0.0,59,0.00,,,0.00,WeatherCatV1.15B25,2013-09-06 19:42:00,
2013-09-06 15:47:00,61.2,47.6,30.19,WNW,299,0.0,1.0,61,0.00,,,0.00,WeatherCatV1.15B25,2013-09-06 19:47:00,
2013-09-06 15:52:00,61.3,48.6,30.19,WNW,299,0.0,0.0,63,0.00,,,0.00,WeatherCatV1.15B25,2013-09-06 19:52:00,
2013-09-06 15:57:00,61.0,47.5,30.18,WNW,299,0.0,1.0,61,0.00,,,0.00,WeatherCatV1.15B25,2013-09-06 19:57:00,
2013-09-06 16:02:00,60.9,46.5,30.18,WNW,303,0.0,0.0,59,0.00,,,0.00,WeatherCatV1.15B25,2013-09-06 20:02:00,
2013-09-06 16:07:00,61.0,48.3,30.18,WNW,303,0.0,0.0,63,0.00,,,0.00,WeatherCatV1.15B25,2013-09-06 20:07:00,
2013-09-06 16:12:00,61.1,48.8,30.18,WNW,303,0.0,0.0,64,0.00,,,0.00,WeatherCatV1.15B25,2013-09-06 20:12:00,
2013-09-06 16:17:00,61.0,47.9,30.18,WNW,303,0.0,0.0,62,0.00,,,0.00,WeatherCatV1.15B25,2013-09-06 20:17:00,
2013-09-06 16:22:00,60.8,46.8,30.18,WNW,303,0.0,0.0,60,0.00,,,0.00,WeatherCatV1.15B25,2013-09-06 20:22:00,
2013-09-06 16:27:00,60.5,47.4,30.18,WNW,303,0.0,0.0,62,0.00,,,0.00,WeatherCatV1.15B25,2013-09-06 20:27:00,
2013-09-06 16:32:00,60.4,46.9,30.17,WNW,303,0.0,0.0,61,0.00,,,0.00,WeatherCatV1.15B25,2013-09-06 20:32:00,
2013-09-06 16:37:00,60.4,49.0,30.17,WNW,303,0.0,0.0,66,0.00,,,0.00,WeatherCatV1.15B25,2013-09-06 20:37:00,
2013-09-06 16:42:00,60.4,48.6,30.17,WNW,303,0.0,0.0,65,0.00,,,0.00,WeatherCatV1.15B25,2013-09-06 20:42:00,
2013-09-06 16:47:00,60.5,47.4,30.17,WNW,303,0.0,0.0,62,0.00,,,0.00,WeatherCatV1.15B25,2013-09-06 20:47:00,
2013-09-06 16:52:00,60.6,47.5,30.17,WNW,303,0.0,0.0,62,0.00,,,0.00,WeatherCatV1.15B25,2013-09-06 20:52:00,
2013-09-06 16:57:00,60.7,44.4,30.17,WNW,303,0.0,0.0,55,0.00,,,0.00,WeatherCatV1.15B25,2013-09-06 20:57:00,
2013-09-06 17:02:00,60.7,44.0,30.17,WNW,303,0.0,0.0,54,0.00,,,0.00,WeatherCatV1.15B25,2013-09-06 21:02:00,
2013-09-06 17:07:00,60.5,41.8,30.17,WNW,303,0.0,0.0,50,0.00,,,0.00,WeatherCatV1.15B25,2013-09-06 21:07:00,
2013-09-06 17:12:00,60.5,47.0,30.17,WNW,303,0.0,0.0,61,0.00,,,0.00,WeatherCatV1.15B25,2013-09-06 21:12:00,
2013-09-06 17:17:00,60.2,45.8,30.17,WNW,303,0.0,0.0,59,0.00,,,0.00,WeatherCatV1.15B25,2013-09-06 21:17:00,
2013-09-06 17:22:00,60.0,45.6,30.17,WNW,303,0.0,0.0,59,0.00,,,0.00,WeatherCatV1.15B25,2013-09-06 21:22:00,
2013-09-06 17:27:00,59.7,44.0,30.17,WNW,303,0.0,0.0,56,0.00,,,0.00,WeatherCatV1.15B25,2013-09-06 21:27:00,
2013-09-06 17:32:00,59.5,41.9,30.17,WNW,303,0.0,0.0,52,0.00,,,0.00,WeatherCatV1.15B25,2013-09-06 21:32:00,
2013-09-06 17:37:00,59.3,43.1,30.17,WNW,303,0.0,0.0,55,0.00,,,0.00,WeatherCatV1.15B25,2013-09-06 21:37:00,
2013-09-06 17:42:00,59.0,43.3,30.17,WNW,303,0.0,0.0,56,0.00,,,0.00,WeatherCatV1.15B25,2013-09-06 21:42:00,
2013-09-06 17:47:00,59.0,42.4,30.17,WNW,303,0.0,0.0,54,0.00,,,0.00,WeatherCatV1.15B25,2013-09-06 21:47:00,
2013-09-06 17:52:00,59.0,42.4,30.17,WNW,303,0.0,0.0,54,0.00,,,0.00,WeatherCatV1.15B25,2013-09-06 21:52:00,
2013-09-06 17:57:00,58.7,43.0,30.18,WNW,303,0.0,0.0,56,0.00,,,0.00,WeatherCatV1.15B25,2013-09-06 21:57:00,
2013-09-06 18:02:00,58.6,43.0,30.17,WNW,303,0.0,0.0,56,0.00,,,0.00,WeatherCatV1.15B25,2013-09-06 22:02:00,
2013-09-06 18:07:00,58.4,42.8,30.17,WNW,303,0.0,0.0,56,0.00,,,0.00,WeatherCatV1.15B25,2013-09-06 22:07:00,
2013-09-06 18:12:00,58.3,42.2,30.17,WNW,303,0.0,0.0,55,0.00,,,0.00,WeatherCatV1.15B25,2013-09-06 22:12:00,
2013-09-06 18:17:00,58.1,42.9,30.17,WNW,303,0.0,0.0,57,0.00,,,0.00,WeatherCatV1.15B25,2013-09-06 22:17:00,
2013-09-06 18:22:00,58.0,41.9,30.17,WNW,303,0.0,0.0,55,0.00,,,0.00,WeatherCatV1.15B25,2013-09-06 22:22:00,
2013-09-06 18:27:00,57.9,41.8,30.17,WNW,303,0.0,0.0,55,0.00,,,0.00,WeatherCatV1.15B25,2013-09-06 22:27:00,
2013-09-06 18:32:00,57.7,42.1,30.17,WNW,303,0.0,0.0,56,0.00,,,0.00,WeatherCatV1.15B25,2013-09-06 22:32:00,
2013-09-06 18:37:00,57.5,44.2,30.17,WNW,303,0.0,0.0,61,0.00,,,0.00,WeatherCatV1.15B25,2013-09-06 22:37:00,
2013-09-06 18:42:00,57.3,43.5,30.16,WNW,303,0.0,0.0,60,0.00,,,0.00,WeatherCatV1.15B25,2013-09-06 22:42:00,
2013-09-06 18:47:00,57.0,42.8,30.16,WNW,303,0.0,0.0,59,0.00,,,0.00,WeatherCatV1.15B25,2013-09-06 22:47:00,
2013-09-06 18:52:00,56.7,42.1,30.16,WNW,303,0.0,0.0,58,0.00,,,0.00,WeatherCatV1.15B25,2013-09-06 22:52:00,
2013-09-06 18:57:00,56.4,41.4,30.16,WNW,303,0.0,0.0,57,0.00,,,0.00,WeatherCatV1.15B25,2013-09-06 22:57:00,
2013-09-06 19:02:00,56.3,41.3,30.16,WNW,303,0.0,0.0,57,0.00,,,0.00,WeatherCatV1.15B25,2013-09-06 23:02:00,
2013-09-06 19:07:00,56.2,41.2,30.16,WNW,303,0.0,0.0,57,0.00,,,0.00,WeatherCatV1.15B25,2013-09-06 23:07:00,
2013-09-06 19:12:00,56.0,41.0,30.16,WNW,303,0.0,0.0,57,0.00,,,0.00,WeatherCatV1.15B25,2013-09-06 23:12:00,
2013-09-06 19:17:00,55.9,40.4,30.16,WNW,303,0.0,0.0,56,0.00,,,0.00,WeatherCatV1.15B25,2013-09-06 23:17:00,
2013-09-06 19:22:00,55.8,41.2,30.16,WNW,303,0.0,0.0,58,0.00,,,0.00,WeatherCatV1.15B25,2013-09-06 23:22:00,
2013-09-06 19:27:00,55.8,43.4,30.16,WNW,303,0.0,0.0,63,0.00,,,0.00,WeatherCatV1.15B25,2013-09-06 23:27:00,
2013-09-06 19:32:00,55.8,43.8,30.16,WNW,303,0.0,0.0,64,0.00,,,0.00,WeatherCatV1.15B25,2013-09-06 23:32:00,
2013-09-06 19:37:00,55.8,44.6,30.16,WNW,303,0.0,0.0,66,0.00,,,0.00,WeatherCatV1.15B25,2013-09-06 23:37:00,
2013-09-06 19:42:00,55.7,44.5,30.16,WNW,303,0.0,0.0,66,0.00,,,0.00,WeatherCatV1.15B25,2013-09-06 23:42:00,
2013-09-06 19:47:00,55.7,44.5,30.16,WNW,303,0.0,0.0,66,0.00,,,0.00,WeatherCatV1.15B25,2013-09-06 23:47:00,
2013-09-06 19:52:00,55.6,44.4,30.16,WNW,303,0.0,0.0,66,0.00,,,0.00,WeatherCatV1.15B25,2013-09-06 23:52:00,
2013-09-06 19:57:00,55.6,44.8,30.16,WNW,292,0.0,0.0,67,0.00,,,0.00,WeatherCatV1.15B25,2013-09-06 23:57:00,
2013-09-06 20:02:00,55.5,44.7,30.15,WNW,292,0.0,0.0,67,0.00,,,0.00,WeatherCatV1.15B25,2013-09-07 00:02:00,
2013-09-06 20:07:00,55.4,44.6,30.16,WNW,292,0.0,0.0,67,0.00,,,0.00,WeatherCatV1.15B25,2013-09-07 00:07:00,
2013-09-06 20:12:00,55.4,44.6,30.16,WNW,292,0.0,0.0,67,0.00,,,0.00,WeatherCatV1.15B25,2013-09-07 00:12:00,
2013-09-06 20:17:00,55.3,44.5,30.16,West,277,0.0,0.0,67,0.00,,,0.00,WeatherCatV1.15B25,2013-09-07 00:17:00,
2013-09-06 20:22:00,55.3,44.1,30.16,West,277,0.0,0.0,66,0.00,,,0.00,WeatherCatV1.15B25,2013-09-07 00:22:00,
2013-09-06 20:27:00,55.3,44.5,30.16,West,277,0.0,0.0,67,0.00,,,0.00,WeatherCatV1.15B25,2013-09-07 00:27:00,
2013-09-06 20:32:00,55.3,44.5,30.16,West,277,0.0,1.0,67,0.00,,,0.00,WeatherCatV1.15B25,2013-09-07 00:32:00,
2013-09-06 20:37:00,55.3,45.3,30.16,West,277,0.0,0.0,69,0.00,,,0.00,WeatherCatV1.15B25,2013-09-07 00:37:00,
2013-09-06 20:42:00,55.2,45.2,30.16,West,277,0.0,0.0,69,0.00,,,0.00,WeatherCatV1.15B25,2013-09-07 00:42:00,
2013-09-06 20:47:00,55.1,45.5,30.16,WNW,289,0.0,0.0,70,0.00,,,0.00,WeatherCatV1.15B25,2013-09-07 00:47:00,
2013-09-06 20:52:00,55.1,45.9,30.16,WNW,288,0.0,0.0,71,0.00,,,0.00,WeatherCatV1.15B25,2013-09-07 00:52:00,
2013-09-06 20:57:00,55.0,45.0,30.16,WNW,288,0.0,0.0,69,0.00,,,0.00,WeatherCatV1.15B25,2013-09-07 00:57:00,
2013-09-06 21:02:00,54.9,44.5,30.16,WSW,245,0.0,0.0,68,0.00,,,0.00,WeatherCatV1.15B25,2013-09-07 01:02:00,
2013-09-06 21:07:00,55.0,44.2,30.16,WSW,245,0.0,0.0,67,0.00,,,0.00,WeatherCatV1.15B25,2013-09-07 01:07:00,
2013-09-06 21:12:00,55.1,43.9,30.16,WSW,242,0.0,0.0,66,0.00,,,0.00,WeatherCatV1.15B25,2013-09-07 01:12:00,
2013-09-06 21:17:00,55.2,44.4,30.16,WSW,242,0.0,0.0,67,0.00,,,0.00,WeatherCatV1.15B25,2013-09-07 01:17:00,
2013-09-06 21:22:00,55.3,44.9,30.16,WSW,243,0.0,0.0,68,0.00,,,0.00,WeatherCatV1.15B25,2013-09-07 01:22:00,
2013-09-06 21:27:00,55.4,45.4,30.16,WSW,240,0.0,1.0,69,0.00,,,0.00,WeatherCatV1.15B25,2013-09-07 01:27:00,
2013-09-06 21:32:00,55.4,46.2,30.16,WSW,240,0.0,0.0,71,0.00,,,0.00,WeatherCatV1.15B25,2013-09-07 01:32:00,
2013-09-06 21:37:00,55.3,45.3,30.16,WSW,241,0.0,0.0,69,0.00,,,0.00,WeatherCatV1.15B25,2013-09-07 01:37:00,
2013-09-06 21:42:00,55.3,45.3,30.15,WSW,242,0.0,0.0,69,0.00,,,0.00,WeatherCatV1.15B25,2013-09-07 01:42:00,
2013-09-06 21:47:00,55.3,44.5,30.15,WSW,242,0.0,0.0,67,0.00,,,0.00,WeatherCatV1.15B25,2013-09-07 01:47:00,
2013-09-06 21:52:00,55.3,44.5,30.15,WSW,241,0.0,0.0,67,0.00,,,0.00,WeatherCatV1.15B25,2013-09-07 01:52:00,
2013-09-06 21:57:00,55.2,45.2,30.15,WSW,242,0.0,0.0,69,0.00,,,0.00,WeatherCatV1.15B25,2013-09-07 01:57:00,
2013-09-06 22:02:00,55.1,44.3,30.15,WSW,242,0.0,0.0,67,0.00,,,0.00,WeatherCatV1.15B25,2013-09-07 02:02:00,
2013-09-06 22:07:00,55.1,44.3,30.15,WSW,242,0.0,0.0,67,0.00,,,0.00,WeatherCatV1.15B25,2013-09-07 02:07:00,
2013-09-06 22:12:00,55.1,44.7,30.15,WSW,245,0.0,0.0,68,0.00,,,0.00,WeatherCatV1.15B25,2013-09-07 02:12:00,
2013-09-06 22:17:00,55.1,44.3,30.15,WSW,254,0.0,0.0,67,0.00,,,0.00,WeatherCatV1.15B25,2013-09-07 02:17:00,
2013-09-06 22:22:00,55.1,44.3,30.15,WSW,254,0.0,1.0,67,0.00,,,0.00,WeatherCatV1.15B25,2013-09-07 02:22:00,
2013-09-06 22:27:00,55.1,44.3,30.15,WSW,253,0.0,0.0,67,0.00,,,0.00,WeatherCatV1.15B25,2013-09-07 02:27:00,
2013-09-06 22:32:00,55.1,44.7,30.15,WSW,254,0.0,0.0,68,0.00,,,0.00,WeatherCatV1.15B25,2013-09-07 02:32:00,
2013-09-06 22:37:00,55.1,45.5,30.15,WSW,253,0.0,0.0,70,0.00,,,0.00,WeatherCatV1.15B25,2013-09-07 02:37:00,
2013-09-06 22:42:00,55.0,45.0,30.15,WSW,253,0.0,0.0,69,0.00,,,0.00,WeatherCatV1.15B25,2013-09-07 02:42:00,
2013-09-06 22:47:00,54.8,45.2,30.15,West,259,0.0,0.0,70,0.00,,,0.00,WeatherCatV1.15B25,2013-09-07 02:47:00,
2013-09-06 22:52:00,54.6,45.4,30.15,West,259,0.0,0.0,71,0.00,,,0.00,WeatherCatV1.15B25,2013-09-07 02:52:00,
2013-09-06 22:57:00,54.3,44.0,30.15,West,259,0.0,0.0,68,0.00,,,0.00,WeatherCatV1.15B25,2013-09-07 02:57:00,
2013-09-06 23:02:00,54.1,43.8,30.14,West,259,0.0,0.0,68,0.00,,,0.00,WeatherCatV1.15B25,2013-09-07 03:02:00,
2013-09-06 23:07:00,53.9,43.6,30.15,West,259,0.0,0.0,68,0.00,,,0.00,WeatherCatV1.15B25,2013-09-07 03:07:00,
2013-09-06 23:12:00,53.8,43.9,30.14,West,259,0.0,0.0,69,0.00,,,0.00,WeatherCatV1.15B25,2013-09-07 03:12:00,
2013-09-06 23:17:00,53.6,43.3,30.14,West,259,0.0,0.0,68,0.00,,,0.00,WeatherCatV1.15B25,2013-09-07 03:17:00,
2013-09-06 23:22:00,53.5,44.0,30.14,West,259,0.0,0.0,70,0.00,,,0.00,WeatherCatV1.15B25,2013-09-07 03:22:00,
2013-09-06 23:27:00,53.5,44.0,30.14,West,259,0.0,0.0,70,0.00,,,0.00,WeatherCatV1.15B25,2013-09-07 03:27:00,
2013-09-06 23:32:00,53.4,44.2,30.14,West,259,0.0,0.0,71,0.00,,,0.00,WeatherCatV1.15B25,2013-09-07 03:32:00,
2013-09-06 23:37:00,53.3,44.9,30.14,West,259,0.0,0.0,73,0.00,,,0.00,WeatherCatV1.15B25,2013-09-07 03:37:00,
2013-09-06 23:42:00,53.2,44.4,30.13,West,259,0.0,0.0,72,0.00,,,0.00,WeatherCatV1.15B25,2013-09-07 03:42:00,
2013-09-06 23:47:00,53.2,44.4,30.13,West,259,0.0,0.0,72,0.00,,,0.00,WeatherCatV1.15B25,2013-09-07 03:47:00,
2013-09-06 23:52:00,53.0,44.6,30.13,West,259,0.0,0.0,73,0.00,,,0.00,WeatherCatV1.15B25,2013-09-07 03:52:00,
2013-09-06 23:57:00,53.0,44.9,30.13,West,259,0.0,0.0,74,0.00,,,0.00,WeatherCatV1.15B25,2013-09-07 03:57:00,